Time,TemperatureF,DewpointF,PressureIn,WindDirection,WindDirectionDegrees,WindSpeedMPH,WindSpeedGustMPH,Humidity,HourlyPrecipIn,Conditions,Clouds,dailyrainin,SoftwareType,DateUTC
2013-08-27 00:09:00,74.7,69.0,29.91,SSW,211,0.0,3.0,83,0.01,,,0.00,weatherlink.com 1.10,2013-08-27 04:09:00,
2013-08-27 00:26:00,74.3,69.0,29.90,SSW,212,3.0,6.0,83,0.01,,,0.00,weatherlink.com 1.10,2013-08-27 04:26:00,
2013-08-27 00:44:00,74.7,69.0,29.90,WSW,240,8.0,9.0,81,0.00,,,0.00,weatherlink.com 1.10,2013-08-27 04:44:00,
2013-08-27 01:01:00,75.0,68.0,29.89,SW,236,11.0,12.0,79,0.00,,,0.00,weatherlink.com 1.10,2013-08-27 05:01:00,
2013-08-27 01:18:00,75.1,68.0,29.89,SSW,209,7.0,12.0,78,0.00,,,0.00,weatherlink.com 1.10,2013-08-27 05:18:00,
2013-08-27 01:35:00,75.2,68.0,29.88,WSW,250,3.0,13.0,78,0.00,,,0.00,weatherlink.com 1.10,2013-08-27 05:35:00,
2013-08-27 01:53:00,75.1,68.0,29.87,SW,232,9.0,11.0,78,0.00,,,0.00,weatherlink.com 1.10,2013-08-27 05:53:00,
2013-08-27 02:10:00,74.9,68.0,29.87,West,266,4.0,12.0,79,0.00,,,0.00,weatherlink.com 1.10,2013-08-27 06:10:00,
2013-08-27 02:27:00,74.4,68.0,29.87,WSW,241,7.0,13.0,81,0.00,,,0.00,weatherlink.com 1.10,2013-08-27 06:27:00,
2013-08-27 02:44:00,73.3,69.0,29.86,SW,217,7.0,14.0,85,0.01,,,0.01,weatherlink.com 1.10,2013-08-27 06:44:00,
2013-08-27 03:02:00,72.9,69.0,29.86,SW,221,6.0,12.0,86,0.01,,,0.01,weatherlink.com 1.10,2013-08-27 07:02:00,
2013-08-27 03:19:00,72.8,69.0,29.85,West,267,2.0,10.0,87,0.01,,,0.01,weatherlink.com 1.10,2013-08-27 07:19:00,
2013-08-27 03:37:00,72.8,69.0,29.84,SW,218,3.0,8.0,87,0.01,,,0.01,weatherlink.com 1.10,2013-08-27 07:37:00,
2013-08-27 03:53:00,72.9,69.0,29.83,SSW,205,4.0,10.0,87,0.00,,,0.01,weatherlink.com 1.10,2013-08-27 07:53:00,
2013-08-27 04:11:00,72.8,69.0,29.83,SW,221,4.0,7.0,87,0.00,,,0.01,weatherlink.com 1.10,2013-08-27 08:11:00,
2013-08-27 04:29:00,73.0,69.0,29.82,West,267,6.0,10.0,86,0.00,,,0.01,weatherlink.com 1.10,2013-08-27 08:29:00,
2013-08-27 04:45:00,73.0,68.0,29.82,West,280,4.0,8.0,85,0.00,,,0.01,weatherlink.com 1.10,2013-08-27 08:45:00,
2013-08-27 05:03:00,73.1,68.0,29.82,West,259,4.0,10.0,85,0.00,,,0.01,weatherlink.com 1.10,2013-08-27 09:03:00,
2013-08-27 05:20:00,73.1,68.0,29.82,West,266,7.0,11.0,85,0.00,,,0.01,weatherlink.com 1.10,2013-08-27 09:20:00,
2013-08-27 05:37:00,73.1,68.0,29.82,West,270,9.0,13.0,85,0.00,,,0.01,weatherlink.com 1.10,2013-08-27 09:37:00,
2013-08-27 05:54:00,73.2,69.0,29.82,West,263,5.0,11.0,85,0.00,,,0.01,weatherlink.com 1.10,2013-08-27 09:54:00,
2013-08-27 06:12:00,73.4,68.0,29.82,WNW,299,4.0,11.0,84,0.00,,,0.01,weatherlink.com 1.10,2013-08-27 10:12:00,
2013-08-27 06:29:00,73.3,68.0,29.82,NW,308,5.0,12.0,84,0.00,,,0.01,weatherlink.com 1.10,2013-08-27 10:29:00,
2013-08-27 06:47:00,73.5,68.0,29.82,WNW,283,7.0,11.0,83,0.00,,,0.01,weatherlink.com 1.10,2013-08-27 10:47:00,
2013-08-27 07:02:00,73.8,68.0,29.83,NW,312,7.0,15.0,82,0.00,,,0.01,weatherlink.com 1.10,2013-08-27 11:02:00,
2013-08-27 07:20:00,73.4,68.0,29.83,NW,316,8.0,15.0,83,0.01,,,0.02,weatherlink.com 1.10,2013-08-27 11:20:00,
2013-08-27 07:37:00,73.3,68.0,29.84,NNW,328,7.0,13.0,83,0.01,,,0.02,weatherlink.com 1.10,2013-08-27 11:37:00,
2013-08-27 07:55:00,73.0,68.0,29.85,NNW,345,10.0,15.0,84,0.01,,,0.02,weatherlink.com 1.10,2013-08-27 11:55:00,
2013-08-27 08:11:00,73.0,68.0,29.85,NW,309,5.0,16.0,84,0.00,,,0.02,weatherlink.com 1.10,2013-08-27 12:11:00,
2013-08-27 08:29:00,73.3,68.0,29.85,NW,321,7.0,11.0,83,0.00,,,0.02,weatherlink.com 1.10,2013-08-27 12:29:00,
2013-08-27 08:46:00,73.4,68.0,29.86,WNW,300,5.0,15.0,83,0.00,,,0.02,weatherlink.com 1.10,2013-08-27 12:46:00,
2013-08-27 09:04:00,73.6,68.0,29.86,NW,305,9.0,14.0,83,0.00,,,0.02,weatherlink.com 1.10,2013-08-27 13:04:00,
2013-08-27 09:21:00,74.0,68.0,29.86,North,353,5.0,17.0,82,0.00,,,0.02,weatherlink.com 1.10,2013-08-27 13:21:00,
2013-08-27 09:39:00,74.3,68.0,29.86,NNW,333,6.0,16.0,81,0.00,,,0.02,weatherlink.com 1.10,2013-08-27 13:39:00,
2013-08-27 09:55:00,75.3,68.0,29.86,North,3,11.0,12.0,79,0.00,,,0.02,weatherlink.com 1.10,2013-08-27 13:55:00,
2013-08-27 10:13:00,76.9,68.0,29.86,NNW,340,14.0,15.0,75,0.00,,,0.02,weatherlink.com 1.10,2013-08-27 14:13:00,
2013-08-27 10:30:00,78.0,69.0,29.87,NE,35,5.0,14.0,73,0.00,,,0.02,weatherlink.com 1.10,2013-08-27 14:30:00,
2013-08-27 10:48:00,78.7,69.0,29.87,NW,323,5.0,15.0,72,0.00,,,0.02,weatherlink.com 1.10,2013-08-27 14:48:00,
2013-08-27 11:04:00,78.7,69.0,29.87,NW,322,10.0,16.0,71,0.00,,,0.02,weatherlink.com 1.10,2013-08-27 15:04:00,
2013-08-27 11:22:00,79.6,69.0,29.87,NNE,15,6.0,15.0,69,0.00,,,0.02,weatherlink.com 1.10,2013-08-27 15:22:00,
2013-08-27 11:39:00,79.4,69.0,29.87,NNW,328,5.0,15.0,70,0.00,,,0.02,weatherlink.com 1.10,2013-08-27 15:39:00,
2013-08-27 11:57:00,79.9,69.0,29.87,WNW,300,11.0,19.0,69,0.00,,,0.02,weatherlink.com 1.10,2013-08-27 15:57:00,
2013-08-27 12:13:00,79.9,68.0,29.87,NNW,331,5.0,20.0,68,0.00,,,0.02,weatherlink.com 1.10,2013-08-27 16:13:00,
2013-08-27 12:31:00,81.2,69.0,29.87,North,353,12.0,16.0,67,0.00,,,0.02,weatherlink.com 1.10,2013-08-27 16:31:00,
2013-08-27 12:48:00,81.5,69.0,29.87,NNW,334,7.0,16.0,65,0.00,,,0.02,weatherlink.com 1.10,2013-08-27 16:48:00,
2013-08-27 13:06:00,81.4,69.0,29.87,NNW,331,7.0,19.0,65,0.00,,,0.02,weatherlink.com 1.10,2013-08-27 17:06:00,
2013-08-27 13:22:00,82.0,68.0,29.87,NW,322,10.0,18.0,63,0.00,,,0.02,weatherlink.com 1.10,2013-08-27 17:22:00,
2013-08-27 13:40:00,82.2,68.0,29.87,North,349,10.0,17.0,63,0.00,,,0.02,weatherlink.com 1.10,2013-08-27 17:40:00,
2013-08-27 13:57:00,82.6,68.0,29.87,North,8,12.0,17.0,61,0.00,,,0.02,weatherlink.com 1.10,2013-08-27 17:57:00,
2013-08-27 14:15:00,83.2,68.0,29.86,NNE,17,8.0,15.0,60,0.00,,,0.02,weatherlink.com 1.10,2013-08-27 18:15:00,
2013-08-27 14:31:00,84.3,67.0,29.86,North,8,10.0,17.0,56,0.00,,,0.02,weatherlink.com 1.10,2013-08-27 18:31:00,
2013-08-27 14:49:00,84.5,67.0,29.86,NNW,336,10.0,13.0,56,0.00,,,0.02,weatherlink.com 1.10,2013-08-27 18:49:00,
2013-08-27 15:06:00,85.2,67.0,29.85,NNW,348,6.0,15.0,55,0.00,,,0.02,weatherlink.com 1.10,2013-08-27 19:06:00,
2013-08-27 15:24:00,85.4,66.0,29.84,WNW,303,3.0,13.0,53,0.00,,,0.02,weatherlink.com 1.10,2013-08-27 19:24:00,
2013-08-27 15:40:00,86.1,66.0,29.84,NNW,336,8.0,13.0,52,0.00,,,0.02,weatherlink.com 1.10,2013-08-27 19:40:00,
2013-08-27 15:58:00,86.1,67.0,29.84,NW,315,6.0,11.0,53,0.00,,,0.02,weatherlink.com 1.10,2013-08-27 19:58:00,
2013-08-27 16:15:00,86.5,67.0,29.84,West,264,3.0,12.0,52,0.00,,,0.02,weatherlink.com 1.10,2013-08-27 20:15:00,
2013-08-27 16:33:00,86.1,66.0,29.84,NW,318,7.0,15.0,52,0.00,,,0.02,weatherlink.com 1.10,2013-08-27 20:33:00,
2013-08-27 16:50:00,86.1,66.0,29.84,NNW,338,9.0,13.0,51,0.00,,,0.02,weatherlink.com 1.10,2013-08-27 20:50:00,
2013-08-27 17:07:00,85.9,66.0,29.84,NNW,347,3.0,11.0,52,0.00,,,0.02,weatherlink.com 1.10,2013-08-27 21:07:00,
2013-08-27 17:42:00,85.9,67.0,29.84,NNW,333,7.0,10.0,53,0.00,,,0.02,weatherlink.com 1.10,2013-08-27 21:42:00,
2013-08-27 17:58:00,86.3,68.0,29.84,NNW,333,3.0,8.0,54,0.00,,,0.02,weatherlink.com 1.10,2013-08-27 21:58:00,
2013-08-27 18:16:00,85.6,68.0,29.84,North,11,3.0,7.0,55,0.00,,,0.02,weatherlink.com 1.10,2013-08-27 22:16:00,
2013-08-27 18:33:00,85.4,68.0,29.84,North,354,3.0,6.0,56,0.00,,,0.02,weatherlink.com 1.10,2013-08-27 22:33:00,
2013-08-27 18:51:00,84.9,68.0,29.84,North,352,2.0,7.0,58,0.00,,,0.02,weatherlink.com 1.10,2013-08-27 22:51:00,
2013-08-27 19:08:00,84.3,68.0,29.85,North,9,1.0,6.0,59,0.00,,,0.02,weatherlink.com 1.10,2013-08-27 23:08:00,
2013-08-27 19:25:00,83.6,68.0,29.86,North,349,2.0,4.0,60,0.00,,,0.02,weatherlink.com 1.10,2013-08-27 23:25:00,
2013-08-27 19:42:00,82.9,68.0,29.86,NE,43,1.0,3.0,61,0.00,,,0.02,weatherlink.com 1.10,2013-08-27 23:42:00,
2013-08-27 19:59:00,82.7,68.0,29.86,NW,321,1.0,4.0,61,0.00,,,0.02,weatherlink.com 1.10,2013-08-27 23:59:00,
2013-08-27 20:17:00,82.2,68.0,29.87,NW,314,0.0,4.0,62,0.00,,,0.02,weatherlink.com 1.10,2013-08-28 00:17:00,
2013-08-27 20:33:00,81.9,68.0,29.87,NNE,18,3.0,5.0,63,0.00,,,0.02,weatherlink.com 1.10,2013-08-28 00:33:00,
2013-08-27 20:51:00,81.6,68.0,29.87,NE,53,0.0,3.0,63,0.00,,,0.02,weatherlink.com 1.10,2013-08-28 00:51:00,
2013-08-27 21:08:00,81.5,67.0,29.87,East,86,1.0,3.0,62,0.00,,,0.02,weatherlink.com 1.10,2013-08-28 01:08:00,
2013-08-27 21:25:00,81.3,67.0,29.88,ESE,113,1.0,3.0,63,0.00,,,0.02,weatherlink.com 1.10,2013-08-28 01:25:00,
2013-08-27 22:00:00,79.3,68.0,29.88,SE,132,0.0,1.0,68,0.00,,,0.02,weatherlink.com 1.10,2013-08-28 02:00:00,
2013-08-27 22:16:00,78.5,68.0,29.89,SE,132,0.0,1.0,69,0.00,,,0.02,weatherlink.com 1.10,2013-08-28 02:16:00,